Time;durP1;ratioP1;P1;durP2;ratioP2;P2;SDS_P1;SDS_P2;PMS_P1;PMS_P2;Temp;Humidity;BMP_temperature;BMP_pressure;BME280_temperature;BME280_humidity;BME280_pressure;Samples;Min_cycle;Max_cycle;Signal;HPM_P1;HPM_P2
2022/02/08 03:19:58;;;;;;;12.48;2.47;;;;;;;;;;5088821;28;20029;-64
2022/02/08 03:22:24;;;;;;;8.75;1.73;;;;;;;;;;5088344;28;20474;-61
2022/02/08 03:24:50;;;;;;;10.90;2.40;;;;;;;;;;5109081;28;20034;-63
2022/02/08 03:27:16;;;;;;;16.75;1.77;;;;;;;;;;5109168;28;20468;-63
2022/02/08 03:29:43;;;;;;;21.33;2.90;;;;;;;;;;5109065;28;20035;-61
2022/02/08 03:32:09;;;;;;;11.27;1.98;;;;;;;;;;5108758;28;20102;-63
2022/02/08 03:34:35;;;;;;;12.45;2.15;;;;;;;;;;5108988;28;20028;-64
2022/02/08 03:37:01;;;;;;;10.00;2.20;;;;;;;;;;5108084;28;20348;-64
2022/02/08 03:39:38;;;;;;;14.23;2.00;;;;;;;;;;5108732;28;20035;-65
2022/02/08 03:42:23;;;;;;;9.32;2.03;;;;;;;;;;5108655;28;20027;-63
2022/02/08 03:44:50;;;;;;;8.48;2.13;;;;;;;;;;5108788;28;20050;-64
2022/02/08 03:47:18;;;;;;;8.07;1.50;;;;;;;;;;5108770;28;20028;-64
2022/02/08 03:49:45;;;;;;;7.53;1.98;;;;;;;;;;5108547;28;20038;-64
2022/02/08 03:52:11;;;;;;;9.93;1.58;;;;;;;;;;5108445;28;20020;-64
2022/02/08 03:54:37;;;;;;;8.10;1.80;;;;;;;;;;5108245;28;20047;-64
2022/02/08 03:57:07;;;;;;;8.00;2.17;;;;;;;;;;5089987;28;20016;-64
2022/02/08 03:59:33;;;;;;;6.97;1.60;;;;;;;;;;5108218;28;20044;-64
2022/02/08 04:02:16;;;;;;;7.93;2.00;;;;;;;;;;5108247;28;20073;-64
2022/02/08 04:07:14;;;;;;;7.50;1.67;;;;;;;;;;5108378;28;20044;-63
2022/02/08 04:09:41;;;;;;;8.23;1.88;;;;;;;;;;5108098;28;20442;-64
2022/02/08 04:12:14;;;;;;;7.60;1.85;;;;;;;;;;5095032;28;20463;-64
2022/02/08 04:17:37;;;;;;;6.55;1.77;;;;;;;;;;5094696;28;20028;-64
2022/02/08 04:41:36;;;;;;;4.82;1.50;;;;;;;;;;5094280;28;20028;-64
2022/02/08 04:49:10;;;;;;;6.60;1.92;;;;;;;;;;5094008;28;20044;-63
2022/02/08 04:51:41;;;;;;;7.25;1.65;;;;;;;;;;5093922;28;20032;-63
2022/02/08 04:54:17;;;;;;;5.88;1.80;;;;;;;;;;5093971;28;20055;-60
2022/02/08 04:59:37;;;;;;;4.20;1.35;;;;;;;;;;5093616;28;20075;-64
2022/02/08 05:45:23;;;;;;;5.38;1.50;;;;;;;;;;5093051;28;20525;-62
2022/02/08 05:47:52;;;;;;;4.75;1.38;;;;;;;;;;5092602;28;20415;-64
2022/02/08 05:55:36;;;;;;;5.25;1.30;;;;;;;;;;5070690;28;20035;-60
2022/02/08 05:58:03;;;;;;;6.20;1.38;;;;;;;;;;5092621;28;20059;-62
2022/02/08 06:00:30;;;;;;;4.82;1.35;;;;;;;;;;5092326;28;20044;-63
2022/02/08 06:03:00;;;;;;;5.55;1.25;;;;;;;;;;5092507;28;20016;-64
2022/02/08 06:05:26;;;;;;;5.03;1.52;;;;;;;;;;5092104;28;20060;-60
2022/02/08 06:07:53;;;;;;;3.83;1.30;;;;;;;;;;5092233;28;20081;-63
2022/02/08 06:10:19;;;;;;;7.15;1.67;;;;;;;;;;5092261;28;20036;-63
2022/02/08 06:12:55;;;;;;;5.82;1.30;;;;;;;;;;5092359;28;20024;-64
2022/02/08 06:15:24;;;;;;;6.05;1.23;;;;;;;;;;5074165;28;20032;-63
2022/02/08 06:17:51;;;;;;;4.25;1.23;;;;;;;;;;5092278;28;20547;-63
2022/02/08 06:20:18;;;;;;;3.63;1.08;;;;;;;;;;5092264;28;20027;-63
2022/02/08 06:22:44;;;;;;;4.72;1.20;;;;;;;;;;5092190;28;20020;-63
2022/02/08 06:25:14;;;;;;;5.10;1.17;;;;;;;;;;5091942;28;20400;-64
2022/02/08 06:27:41;;;;;;;7.03;1.70;;;;;;;;;;5091876;28;20088;-64
2022/02/08 06:30:08;;;;;;;3.80;1.25;;;;;;;;;;5091941;28;20027;-64
2022/02/08 06:32:35;;;;;;;5.25;1.25;;;;;;;;;;5091933;28;20039;-64
2022/02/08 06:35:06;;;;;;;6.13;1.58;;;;;;;;;;5091478;28;20028;-63
2022/02/08 06:37:35;;;;;;;6.60;1.50;;;;;;;;;;5091787;28;20383;-64
2022/02/08 06:40:02;;;;;;;3.75;1.33;;;;;;;;;;5091829;28;20035;-63
2022/02/08 06:42:28;;;;;;;6.97;1.38;;;;;;;;;;5091789;28;20475;-63
2022/02/08 06:44:54;;;;;;;6.03;1.80;;;;;;;;;;5091650;28;20024;-63
2022/02/08 06:47:20;;;;;;;5.53;1.42;;;;;;;;;;5091741;28;20020;-63
2022/02/08 06:49:46;;;;;;;6.25;1.10;;;;;;;;;;5091599;28;20036;-64
2022/02/08 06:52:12;;;;;;;5.50;1.35;;;;;;;;;;5091725;28;20105;-64
2022/02/08 06:54:38;;;;;;;5.38;1.40;;;;;;;;;;5091254;28;20464;-64
2022/02/08 06:57:05;;;;;;;6.70;1.38;;;;;;;;;;5091426;28;20460;-64
2022/02/08 06:59:37;;;;;;;7.13;1.85;;;;;;;;;;5091515;28;20383;-63
2022/02/08 07:02:03;;;;;;;5.57;1.45;;;;;;;;;;5091369;28;20411;-63
2022/02/08 07:04:29;;;;;;;4.05;1.35;;;;;;;;;;5091368;28;20022;-64
2022/02/08 07:06:55;;;;;;;5.15;1.27;;;;;;;;;;5091725;28;20032;-64
2022/02/08 07:09:22;;;;;;;5.55;1.40;;;;;;;;;;5091277;28;20558;-63
2022/02/08 07:11:48;;;;;;;5.70;1.58;;;;;;;;;;5091087;28;20028;-63
2022/02/08 07:14:15;;;;;;;5.40;1.48;;;;;;;;;;5091097;28;20020;-64
2022/02/08 07:16:41;;;;;;;4.65;1.15;;;;;;;;;;5090950;28;20032;-63
2022/02/08 07:19:07;;;;;;;5.43;1.25;;;;;;;;;;5091358;28;20051;-64
2022/02/08 07:21:36;;;;;;;4.28;1.33;;;;;;;;;;5091343;28;20070;-64
2022/02/08 07:24:02;;;;;;;6.15;1.60;;;;;;;;;;5091118;28;20052;-60
2022/02/08 07:26:28;;;;;;;3.80;1.30;;;;;;;;;;5091191;28;20415;-63
2022/02/08 07:28:54;;;;;;;5.43;1.40;;;;;;;;;;5091039;28;20055;-60
2022/02/08 07:31:23;;;;;;;6.38;1.60;;;;;;;;;;5091256;28;20476;-61
2022/02/08 07:36:58;;;;;;;5.35;1.63;;;;;;;;;;5091117;28;20040;-63
2022/02/08 07:39:22;;;;;;;5.70;1.55;;;;;;;;;;5088744;28;20031;-62
2022/02/08 07:41:48;;;;;;;6.75;1.48;;;;;;;;;;5090891;28;20020;-63
2022/02/08 07:44:14;;;;;;;3.47;1.25;;;;;;;;;;5091074;28;20066;-64
2022/02/08 07:46:40;;;;;;;5.18;1.52;;;;;;;;;;5093311;28;20077;-61
2022/02/08 07:49:06;;;;;;;5.22;1.50;;;;;;;;;;5094840;28;20066;-62
2022/02/08 07:51:34;;;;;;;4.72;1.38;;;;;;;;;;5094942;28;20048;-62
2022/02/08 07:54:00;;;;;;;6.80;1.63;;;;;;;;;;5094665;28;20266;-59
2022/02/08 07:56:26;;;;;;;2.95;1.00;;;;;;;;;;5094761;28;20429;-63
2022/02/08 07:58:53;;;;;;;5.35;1.42;;;;;;;;;;5094688;28;20032;-64
2022/02/08 08:01:19;;;;;;;4.78;1.30;;;;;;;;;;5094756;28;20111;-60
2022/02/08 08:03:45;;;;;;;4.70;1.23;;;;;;;;;;5094724;28;20031;-63
2022/02/08 08:06:13;;;;;;;6.55;1.33;;;;;;;;;;5094522;28;20020;-62
2022/02/08 08:08:39;;;;;;;5.53;1.73;;;;;;;;;;5094444;28;20094;-61
2022/02/08 08:11:10;;;;;;;5.35;1.55;;;;;;;;;;5094569;28;20051;-63
2022/02/08 08:13:49;;;;;;;6.05;1.60;;;;;;;;;;5094153;28;20103;-64
2022/02/08 08:16:22;;;;;;;4.65;1.30;;;;;;;;;;5094164;28;20046;-63
2022/02/08 08:21:27;;;;;;;3.83;1.30;;;;;;;;;;5094505;28;20111;-64
2022/02/08 08:23:53;;;;;;;4.85;1.50;;;;;;;;;;5094085;28;20615;-60
2022/02/08 08:26:20;;;;;;;8.15;1.60;;;;;;;;;;5094099;28;20032;-63
2022/02/08 08:28:46;;;;;;;4.10;1.30;;;;;;;;;;5094043;28;20031;-63
2022/02/08 08:31:12;;;;;;;4.85;1.17;;;;;;;;;;5094001;28;20028;-62
2022/02/08 08:33:38;;;;;;;4.25;1.25;;;;;;;;;;5094082;28;20115;-64
2022/02/08 08:36:05;;;;;;;4.75;1.20;;;;;;;;;;5093956;28;20059;-61
2022/02/08 08:38:33;;;;;;;5.90;1.45;;;;;;;;;;5094136;28;20364;-60
2022/02/08 08:41:09;;;;;;;7.32;1.75;;;;;;;;;;5093969;28;20035;-62
2022/02/08 08:53:57;;;;;;;6.20;1.48;;;;;;;;;;5093686;28;20027;-63
2022/02/08 08:56:23;;;;;;;6.35;1.58;;;;;;;;;;5092037;28;20077;-61
2022/02/08 08:58:49;;;;;;;4.05;1.40;;;;;;;;;;5091746;28;20068;-64
2022/02/08 09:01:15;;;;;;;4.93;1.40;;;;;;;;;;5092202;28;20463;-64
2022/02/08 09:03:44;;;;;;;6.50;1.55;;;;;;;;;;5091820;28;20020;-62
2022/02/08 09:06:10;;;;;;;4.82;1.45;;;;;;;;;;5092410;28;20372;-64
2022/02/08 09:08:40;;;;;;;3.92;1.02;;;;;;;;;;5092781;28;20024;-64
2022/02/08 09:14:03;;;;;;;5.10;0.85;;;;;;;;;;5071004;28;20043;-64
2022/02/08 09:16:54;;;;;;;5.22;1.20;;;;;;;;;;5093028;28;20105;-61
2022/02/08 09:27:47;;;;;;;3.28;0.95;;;;;;;;;;5093380;28;20126;-64
2022/02/08 09:30:14;;;;;;;3.70;1.40;;;;;;;;;;5092552;28;20089;-61
2022/02/08 09:32:44;;;;;;;3.97;1.15;;;;;;;;;;5092864;28;20128;-62
2022/02/08 09:35:11;;;;;;;3.42;1.13;;;;;;;;;;5092943;28;20171;-64
2022/02/08 09:37:37;;;;;;;5.40;1.40;;;;;;;;;;5092866;28;20039;-64
2022/02/08 09:40:05;;;;;;;4.30;1.10;;;;;;;;;;5074368;28;20031;-62
2022/02/08 09:42:32;;;;;;;3.03;0.82;;;;;;;;;;5092829;28;20016;-64
2022/02/08 09:44:59;;;;;;;4.10;1.10;;;;;;;;;;5092846;28;20020;-64
2022/02/08 09:47:49;;;;;;;4.82;1.10;;;;;;;;;;5074789;28;20390;-64
2022/02/08 09:50:20;;;;;;;5.05;1.30;;;;;;;;;;5092329;28;20039;-64
2022/02/08 09:52:51;;;;;;;5.88;1.20;;;;;;;;;;5092524;28;20024;-62
2022/02/08 09:55:17;;;;;;;4.93;1.55;;;;;;;;;;5092313;28;20012;-64
2022/02/08 09:57:43;;;;;;;3.10;1.17;;;;;;;;;;5092384;28;20049;-63
2022/02/08 10:00:09;;;;;;;4.88;1.00;;;;;;;;;;5092303;28;20088;-64
2022/02/08 10:02:36;;;;;;;4.93;1.25;;;;;;;;;;5092526;28;20379;-65
2022/02/08 10:05:04;;;;;;;4.25;1.00;;;;;;;;;;5092040;28;20044;-63
2022/02/08 10:07:33;;;;;;;4.22;1.20;;;;;;;;;;5092918;28;20039;-64
2022/02/08 10:10:00;;;;;;;4.88;1.20;;;;;;;;;;5092336;28;20390;-62
2022/02/08 10:12:32;;;;;;;6.88;1.40;;;;;;;;;;5092204;28;20021;-60
2022/02/08 10:22:47;;;;;;;4.80;1.20;;;;;;;;;;5092187;28;20051;-60
2022/02/08 10:25:20;;;;;;;6.03;1.55;;;;;;;;;;5092085;28;20024;-63
2022/02/08 10:28:01;;;;;;;5.80;1.40;;;;;;;;;;5091984;28;20386;-63
2022/02/08 10:38:43;;;;;;;3.22;1.02;;;;;;;;;;5091593;28;20824;-64
2022/02/08 10:41:10;;;;;;;5.65;2.03;;;;;;;;;;5091668;28;20468;-64
2022/02/08 10:43:38;;;;;;;4.95;1.40;;;;;;;;;;5091734;28;20467;-64
2022/02/08 10:46:04;;;;;;;6.60;1.40;;;;;;;;;;5091624;28;20383;-62
2022/02/08 10:48:32;;;;;;;5.32;1.30;;;;;;;;;;5092022;28;20438;-64
2022/02/08 10:51:00;;;;;;;4.97;1.33;;;;;;;;;;5091563;28;20102;-61
2022/02/08 10:53:37;;;;;;;3.55;1.17;;;;;;;;;;5091687;28;20020;-65
2022/02/08 10:56:09;;;;;;;6.65;1.85;;;;;;;;;;5091815;28;20024;-62
2022/02/08 10:58:51;;;;;;;4.97;1.20;;;;;;;;;;5091437;28;20044;-64
2022/02/08 11:01:22;;;;;;;5.27;1.33;;;;;;;;;;5091603;28;20286;-64
2022/02/08 11:09:07;;;;;;;4.10;1.13;;;;;;;;;;5091451;28;20029;-63
2022/02/08 11:14:39;;;;;;;2.88;0.85;;;;;;;;;;5091268;28;20039;-60
2022/02/08 11:24:57;;;;;;;5.93;1.33;;;;;;;;;;5095258;28;20403;-64
2022/02/08 11:27:23;;;;;;;3.83;1.17;;;;;;;;;;5095321;28;20034;-59
2022/02/08 11:29:51;;;;;;;5.20;1.08;;;;;;;;;;5095294;28;20026;-60
2022/02/08 11:46:00;;;;;;;6.57;1.10;;;;;;;;;;5095115;28;20035;-64
2022/02/08 11:54:22;;;;;;;5.20;1.10;;;;;;;;;;5095200;28;20043;-64
2022/02/08 11:59:46;;;;;;;3.70;1.00;;;;;;;;;;5094654;28;20047;-64
2022/02/08 12:07:21;;;;;;;3.57;1.10;;;;;;;;;;5094758;28;20427;-63
2022/02/08 12:10:12;;;;;;;5.30;1.35;;;;;;;;;;5094440;28;20036;-62
2022/02/08 12:48:52;;;;;;;2.85;0.90;;;;;;;;;;5094056;28;20036;-61
2022/02/08 13:16:41;;;;;;;4.07;0.90;;;;;;;;;;5093268;28;20061;-65
2022/02/08 14:01:56;;;;;;;2.03;0.75;;;;;;;;;;5092538;28;20119;-63
2022/02/08 14:25:30;;;;;;;2.20;0.82;;;;;;;;;;5091987;28;20536;-64
2022/02/08 14:30:48;;;;;;;3.45;1.00;;;;;;;;;;5092028;28;20035;-65
2022/02/08 14:57:45;;;;;;;3.53;1.00;;;;;;;;;;5091590;28;20086;-63
2022/02/08 15:10:53;;;;;;;3.38;0.88;;;;;;;;;;5091387;28;20028;-64
2022/02/08 15:13:24;;;;;;;2.35;0.80;;;;;;;;;;5091333;28;20024;-63
2022/02/08 15:16:10;;;;;;;3.08;0.88;;;;;;;;;;5091459;28;20459;-61
2022/02/08 15:18:38;;;;;;;1.90;0.63;;;;;;;;;;5091271;28;20104;-60
2022/02/08 15:21:06;;;;;;;3.28;1.05;;;;;;;;;;5091464;28;20034;-60
2022/02/08 15:23:32;;;;;;;5.22;1.00;;;;;;;;;;5091199;28;20027;-63
2022/02/08 15:25:59;;;;;;;1.98;0.80;;;;;;;;;;5091174;28;20495;-60
2022/02/08 15:28:26;;;;;;;2.55;0.82;;;;;;;;;;5091225;28;20024;-63
2022/02/08 15:30:54;;;;;;;4.35;1.08;;;;;;;;;;5090906;28;20491;-60
2022/02/08 15:33:21;;;;;;;2.95;0.77;;;;;;;;;;5091082;28;20016;-62
2022/02/08 15:35:47;;;;;;;2.72;0.90;;;;;;;;;;5091045;28;20024;-60
2022/02/08 15:38:13;;;;;;;2.78;0.90;;;;;;;;;;5091338;28;20348;-61
2022/02/08 15:40:39;;;;;;;3.15;0.95;;;;;;;;;;5091045;28;20052;-60
2022/02/08 15:43:06;;;;;;;3.28;1.00;;;;;;;;;;5072761;28;20111;-64
2022/02/08 15:46:22;;;;;;;2.67;0.90;;;;;;;;;;5091125;28;20032;-61
2022/02/08 15:48:22;;;;;;;2.45;0.95;;;;;;;;;;5083366;28;20597;-63
2022/02/08 15:51:03;;;;;;;2.92;0.90;;;;;;;;;;5090806;28;20028;-61
2022/02/08 16:08:43;;;;;;;4.05;0.90;;;;;;;;;;5094592;28;20546;-61
2022/02/08 16:13:52;;;;;;;3.13;1.00;;;;;;;;;;5094302;28;20028;-64
2022/02/08 16:32:30;;;;;;;2.28;0.77;;;;;;;;;;5094200;28;20137;-63
2022/02/08 16:54:03;;;;;;;3.38;0.85;;;;;;;;;;5093701;28;20090;-64
2022/02/08 16:59:05;;;;;;;1.70;0.70;;;;;;;;;;5093480;28;20389;-64
2022/02/08 17:01:32;;;;;;;2.47;0.75;;;;;;;;;;5093479;28;20112;-61
2022/02/08 17:03:59;;;;;;;2.40;0.90;;;;;;;;;;5075091;28;20012;-63
2022/02/08 17:06:27;;;;;;;3.35;0.90;;;;;;;;;;5093335;28;20020;-63
2022/02/08 17:09:02;;;;;;;2.97;1.10;;;;;;;;;;5093108;28;20609;-63
2022/02/08 17:11:35;;;;;;;3.92;0.90;;;;;;;;;;5093026;28;20388;-64
2022/02/08 17:46:35;;;;;;;2.38;0.73;;;;;;;;;;5092571;28;20532;-62
2022/02/08 17:49:01;;;;;;;3.55;1.25;;;;;;;;;;5092910;28;20193;-64
2022/02/08 17:51:28;;;;;;;3.97;1.20;;;;;;;;;;5092726;28;20028;-62
2022/02/08 17:53:54;;;;;;;1.98;0.90;;;;;;;;;;5092476;28;20024;-61
2022/02/08 17:56:20;;;;;;;4.65;1.27;;;;;;;;;;5092676;28;20020;-62
2022/02/08 17:58:49;;;;;;;2.75;0.90;;;;;;;;;;5092511;28;20027;-63
2022/02/08 18:01:15;;;;;;;2.58;0.93;;;;;;;;;;5092502;28;20024;-61
2022/02/08 18:03:41;;;;;;;4.38;1.30;;;;;;;;;;5092313;28;20024;-62
2022/02/08 18:06:07;;;;;;;2.92;0.90;;;;;;;;;;5092223;28;20142;-61
2022/02/08 18:08:35;;;;;;;2.58;0.80;;;;;;;;;;5092071;28;20372;-60
2022/02/08 18:11:01;;;;;;;2.35;0.90;;;;;;;;;;5092247;28;20140;-62
2022/02/08 18:13:30;;;;;;;3.58;1.23;;;;;;;;;;5092331;28;20016;-64
2022/02/08 18:15:58;;;;;;;2.15;0.88;;;;;;;;;;5091896;28;20024;-61
2022/02/08 18:18:30;;;;;;;2.05;0.85;;;;;;;;;;5091961;28;20024;-62
2022/02/08 18:21:00;;;;;;;3.90;1.15;;;;;;;;;;5091924;28;20012;-62
2022/02/08 19:05:03;;;;;;;3.42;0.93;;;;;;;;;;5091686;28;20062;-60
2022/02/08 19:09:55;;;;;;;2.45;0.75;;;;;;;;;;5091761;28;20044;-60
2022/02/08 19:15:21;;;;;;;3.50;1.02;;;;;;;;;;5091459;28;20028;-62
2022/02/08 19:18:30;;;;;;;3.58;1.10;;;;;;;;;;5091577;28;20043;-63
2022/02/08 19:21:33;;;;;;;2.60;0.80;;;;;;;;;;5091793;28;20067;-63
2022/02/08 19:23:41;;;;;;;2.75;0.95;;;;;;;;;;5088779;28;20089;-64
2022/02/08 19:26:07;;;;;;;3.10;1.13;;;;;;;;;;5091431;28;20039;-60
2022/02/08 19:28:34;;;;;;;2.58;0.88;;;;;;;;;;5091297;28;20403;-63
2022/02/08 19:31:00;;;;;;;3.03;1.17;;;;;;;;;;5091141;28;20047;-64
2022/02/08 19:33:26;;;;;;;2.13;1.00;;;;;;;;;;5091341;28;20107;-63
2022/02/08 19:35:53;;;;;;;2.58;0.80;;;;;;;;;;5091398;28;20384;-62
2022/02/08 19:38:21;;;;;;;3.10;1.00;;;;;;;;;;5091270;28;20036;-62
2022/02/08 19:40:49;;;;;;;3.55;1.00;;;;;;;;;;5091166;28;20101;-62
2022/02/08 19:43:15;;;;;;;4.70;1.20;;;;;;;;;;5094420;28;20434;-61
2022/02/08 19:45:43;;;;;;;3.10;1.02;;;;;;;;;;5094991;28;20028;-61
2022/02/08 19:48:10;;;;;;;2.15;1.00;;;;;;;;;;5094967;28;20012;-62
2022/02/08 19:50:39;;;;;;;3.30;1.10;;;;;;;;;;5094855;28;20044;-61
2022/02/08 19:53:07;;;;;;;3.30;1.20;;;;;;;;;;5094958;28;20012;-63
2022/02/08 19:58:09;;;;;;;3.35;1.08;;;;;;;;;;5094990;28;20028;-60
2022/02/08 20:00:37;;;;;;;3.45;1.08;;;;;;;;;;5094674;28;20044;-63
2022/02/08 20:03:05;;;;;;;3.17;1.10;;;;;;;;;;5094611;28;20020;-63
2022/02/08 20:05:32;;;;;;;3.35;1.20;;;;;;;;;;5094537;28;20526;-60
2022/02/08 20:07:59;;;;;;;2.65;1.08;;;;;;;;;;5094466;28;20115;-64
2022/02/08 20:10:26;;;;;;;2.92;1.00;;;;;;;;;;5094478;28;20471;-64
2022/02/08 20:12:53;;;;;;;2.70;0.95;;;;;;;;;;5094495;28;20041;-62
2022/02/08 20:15:20;;;;;;;3.92;1.35;;;;;;;;;;5094413;28;20028;-60
2022/02/08 20:17:50;;;;;;;3.15;1.20;;;;;;;;;;5094244;28;20055;-60
2022/02/08 20:20:16;;;;;;;2.67;1.00;;;;;;;;;;5094123;28;20379;-61
2022/02/08 20:22:51;;;;;;;2.95;1.02;;;;;;;;;;5094168;28;20023;-60
2022/02/08 20:25:20;;;;;;;2.55;0.85;;;;;;;;;;5094404;28;20032;-60
2022/02/08 20:27:51;;;;;;;2.35;0.88;;;;;;;;;;5094387;28;20028;-63
2022/02/08 20:30:21;;;;;;;2.70;0.98;;;;;;;;;;5094098;28;20028;-61
2022/02/08 20:32:49;;;;;;;2.53;0.95;;;;;;;;;;5094163;28;20047;-61
2022/02/08 20:35:17;;;;;;;2.03;0.90;;;;;;;;;;5094030;28;20028;-64
2022/02/08 20:37:43;;;;;;;1.58;0.75;;;;;;;;;;5093956;28;20008;-60
2022/02/08 20:40:10;;;;;;;2.97;1.20;;;;;;;;;;5093906;28;20024;-61
2022/02/08 20:42:36;;;;;;;2.88;0.90;;;;;;;;;;5093773;28;20062;-62
2022/02/08 20:45:04;;;;;;;2.80;0.90;;;;;;;;;;5094132;28;20028;-64
2022/02/08 20:47:30;;;;;;;1.45;0.77;;;;;;;;;;5094135;28;20020;-63
2022/02/08 20:50:10;;;;;;;1.85;0.90;;;;;;;;;;5093850;28;20035;-64
2022/02/08 20:52:40;;;;;;;2.17;0.85;;;;;;;;;;5093494;28;20512;-60
2022/02/08 20:55:09;;;;;;;3.20;0.90;;;;;;;;;;5093723;28;20024;-61
2022/02/08 20:57:37;;;;;;;2.25;0.82;;;;;;;;;;5093585;28;20020;-61
2022/02/08 21:00:08;;;;;;;1.60;0.82;;;;;;;;;;5093752;28;20071;-60
2022/02/08 21:02:40;;;;;;;2.08;0.82;;;;;;;;;;5093565;28;20031;-60
2022/02/08 21:07:42;;;;;;;3.03;0.80;;;;;;;;;;5093442;28;20024;-64
2022/02/08 21:10:08;;;;;;;2.97;1.00;;;;;;;;;;5093413;28;20024;-60
2022/02/08 21:12:42;;;;;;;1.85;0.73;;;;;;;;;;5093583;28;20084;-63
2022/02/08 21:15:09;;;;;;;2.08;0.80;;;;;;;;;;5093581;28;20049;-61
2022/02/08 21:17:36;;;;;;;2.38;0.93;;;;;;;;;;5093310;28;20386;-62
2022/02/08 21:20:02;;;;;;;2.45;0.90;;;;;;;;;;5093361;28;20039;-65
2022/02/08 21:22:28;;;;;;;1.83;1.00;;;;;;;;;;5093195;28;20043;-64
2022/02/08 21:24:55;;;;;;;1.73;0.70;;;;;;;;;;5093012;28;20095;-63
2022/02/08 21:27:23;;;;;;;1.77;0.70;;;;;;;;;;5074975;28;20024;-64
2022/02/08 21:47:12;;;;;;;1.95;0.95;;;;;;;;;;5093082;28;20486;-60
2022/02/08 21:53:24;;;;;;;2.72;0.95;;;;;;;;;;5092600;28;20613;-64
2022/02/08 21:55:54;;;;;;;2.55;1.10;;;;;;;;;;5092495;28;20012;-63
2022/02/08 21:58:21;;;;;;;3.03;0.98;;;;;;;;;;5074267;28;20376;-64
2022/02/08 22:00:49;;;;;;;2.10;0.70;;;;;;;;;;5092584;28;20263;-60
2022/02/08 22:03:16;;;;;;;2.35;0.77;;;;;;;;;;5092551;28;20990;-61
2022/02/08 22:05:42;;;;;;;2.63;1.00;;;;;;;;;;5091824;28;20031;-63
2022/02/08 22:16:12;;;;;;;2.22;0.80;;;;;;;;;;5092245;28;20043;-62
2022/02/08 22:34:07;;;;;;;2.00;0.93;;;;;;;;;;5092204;28;20028;-60
2022/02/08 22:36:39;;;;;;;2.38;1.17;;;;;;;;;;5091873;28;20486;-60
2022/02/08 22:44:16;;;;;;;2.30;0.90;;;;;;;;;;5092007;28;20372;-61
2022/02/08 22:46:42;;;;;;;2.05;0.85;;;;;;;;;;5091994;28;20019;-61
2022/02/08 22:49:08;;;;;;;1.90;0.63;;;;;;;;;;5091810;28;20031;-61
2022/02/08 22:51:34;;;;;;;2.47;0.80;;;;;;;;;;5091763;28;20028;-61
2022/02/08 22:54:00;;;;;;;1.60;0.70;;;;;;;;;;5091785;28;20016;-63
2022/02/08 22:56:29;;;;;;;1.75;0.80;;;;;;;;;;5091688;28;20028;-62
2022/02/08 22:58:55;;;;;;;1.42;0.70;;;;;;;;;;5091565;28;20483;-60
2022/02/08 23:01:21;;;;;;;1.02;0.60;;;;;;;;;;5091615;28;20024;-62
2022/02/08 23:03:48;;;;;;;1.73;0.80;;;;;;;;;;5091576;28;20099;-62
2022/02/08 23:06:14;;;;;;;2.42;0.82;;;;;;;;;;5091710;28;20070;-60
2022/02/08 23:08:40;;;;;;;2.13;0.70;;;;;;;;;;5091572;28;20032;-60
2022/02/08 23:13:55;;;;;;;2.65;1.02;;;;;;;;;;5091574;28;20025;-60
2022/02/08 23:38:25;;;;;;;1.98;0.70;;;;;;;;;;5095658;28;20030;-63
2022/02/08 23:40:51;;;;;;;1.00;0.60;;;;;;;;;;5095305;28;20513;-63
2022/02/08 23:43:19;;;;;;;2.15;0.80;;;;;;;;;;5095242;28;20103;-60
2022/02/08 23:45:47;;;;;;;1.77;0.60;;;;;;;;;;5095202;28;20028;-64
2022/02/08 23:48:21;;;;;;;2.08;0.70;;;;;;;;;;5095185;28;20031;-61
2022/02/08 23:50:52;;;;;;;1.15;0.55;;;;;;;;;;5094935;28;20028;-64
2022/02/08 23:55:57;;;;;;;2.05;0.70;;;;;;;;;;5095014;28;20016;-64
2022/02/08 23:58:24;;;;;;;2.70;0.60;;;;;;;;;;5094851;28;20028;-64
